No se requiere un especial cuidado respecto a la situación meteorológica.   -   No hay avisos

Informes METAR

 

LEZL - Sevilla, Spain
Distancia de la estación: ENE 8km
Actualización: 16/12/2017 21:00
Despejado
Despejado
 Viento de NNE
Viento: NNE 13 km/h
Temperatura: 10°C
Sensación térmica: 8°C
Rocío: 6°C
Humedad: 76%
Barómetro: 1024 hPa
Resumen: Despejado
Visibilidad: mayor de 10 km
2017/12/16 20:00 LEZL 162000Z 03007KT CAVOK 10/06 Q1024 NOSIG
LEMO - Morón, Spain
Distancia de la estación: SE 43km
Actualización: 16/12/2017 21:00
Despejado
Despejado
 Viento de NE
Viento: NE 9 km/h
Temperatura: 7°C
Sensación térmica: 6°C
Rocío: 3°C
Humedad: 76%
Barómetro: 1023 hPa
Resumen: Despejado
Visibilidad: mayor de 10 km
2017/12/16 20:00 LEMO 162000Z 04005KT CAVOK 07/03 Q1023 NOSIG
LEJR - Jeréz, Spain
Distancia de la estación: S 71km
Actualización: 16/12/2017 21:30
Despejado
Despejado
 Viento de N
Viento: N 15 km/h
Temperatura: 8°C
Sensación térmica: 5°C
Rocío: 3°C
Humedad: 71%
Barómetro: 1023 hPa
Resumen: Despejado
Visibilidad: mayor de 10 km
2017/12/16 20:30 LEJR 162030Z 01008KT CAVOK 08/03 Q1023
 
LERT - Rota, Spain
Distancia de la estación: SSO 89km
Actualización: 16/12/2017 21:00
Despejado
Despejado
 Viento de NE
Viento: NE 11 km/h
Temperatura: 9°C
Sensación térmica: 7°C
Rocío: 4°C
Humedad: 71%
Barómetro: 1023 hPa
Resumen: Despejado
Visibilidad: mayor de 10 km
2017/12/16 20:00 LERT 162000Z 04006KT CAVOK 09/04 Q1023 NOSIG
LEMG - Málaga, Spain
Distancia de la estación: ESE 157km
Actualización: 16/12/2017 21:30
Poco nuboso
Poco nuboso
 Viento de O
Viento: O 19 km/h
Temperatura: 13°C
Rocío: 2°C
Humedad: 47%
Barómetro: 1023 hPa
Nubes: Poco nuboso
Visibilidad: 10 km
Detalles de las nubes: Poco nuboso 1219 m
2017/12/16 20:30 LEMG 162030Z 27010KT 9999 FEW040 13/02 Q1023 NOSIG
LEBA - Córdoba, Spain
Distancia de la estación: ENE 115km
Actualización: 16/12/2017 21:30
Despejado
Despejado
 Viento de E
Viento: E 9 km/h
Temperatura: 6°C
Sensación térmica: 4°C
Rocío: 2°C
Humedad: 76%
Barómetro: 1025 hPa
Nubes: Despejado
Visibilidad: 10 km
2017/12/16 20:30 LEBA 162030Z AUTO 09005KT 9999 NCD 06/02 Q1025
 
LEGR - Granada, Spain
Distancia de la estación: E 198km
Actualización: 16/12/2017 21:30
Despejado
Despejado
 Viento de N
Viento: N 11 km/h, Racha: 30 km/h
Temperatura: 6°C
Sensación térmica: 4°C
Rocío: 0°C
Humedad: 66%
Barómetro: 1023 hPa
Resumen: Despejado
Visibilidad: mayor de 10 km
2017/12/16 20:30 LEGR 162030Z 36006G16KT 270V050 CAVOK 06/M00 Q1023
LEAM - Almería, Spain
Distancia de la estación: E 326km
Actualización: 16/12/2017 21:30
Poco nuboso
Poco nuboso
 Viento de N
Viento: N 9 km/h
Temperatura: 10°C
Sensación térmica: 9°C
Rocío: 2°C
Humedad: 58%
Barómetro: 1023 hPa
Nubes: Poco nuboso
Visibilidad: 10 km
Detalles de las nubes: Poco nuboso 2134 m
2017/12/16 20:30 LEAM 162030Z 36005KT 9999 FEW070 10/02 Q1023
LEMD - Madrid/Barajas, Spain
Distancia de la estación: NNE 402km
Actualización: 16/12/2017 21:30
Despejado
Despejado
 Viento de N
Viento: N 15 km/h
Temperatura: 5°C
Sensación térmica: 2°C
Rocío: -1°C
Humedad: 66%
Barómetro: 1025 hPa
Resumen: Despejado
Visibilidad: mayor de 10 km
2017/12/16 20:30 LEMD 162030Z 01008KT 340V050 CAVOK 05/M01 Q1025 NOSIG
 
LEVD - Valladolid, Spain
Distancia de la estación: N 492km
Actualización: 16/12/2017 21:30
Parcialmente nuboso
Parcialmente nuboso
 Viento de E
Viento: E 11 km/h
Temperatura: 2°C
Sensación térmica: -1°C
Rocío: 0°C
Humedad: 87%
Barómetro: 1027 hPa
Nubes: Parcialmente nuboso
Visibilidad: 10 km
Detalles de las nubes: Poco nuboso 1067 m
Parcialmente nuboso 1341 m
2017/12/16 20:30 LEVD 162030Z 10006KT 9999 FEW035 SCT044 02/M00 Q1027
LEBL - Barcelona, Spain
Distancia de la estación: NE 816km
Actualización: 16/12/2017 21:30
Despejado
Despejado
 Viento de NNO
Viento: NNO 11 km/h
Temperatura: 8°C
Sensación térmica: 6°C
Rocío: 0°C
Humedad: 57%
Barómetro: 1021 hPa
Resumen: Despejado
Visibilidad: mayor de 10 km
2017/12/16 20:30 LEBL 162030Z 33006KT 300V360 CAVOK 08/00 Q1021 NOSIG
LEVC - Valencia, Spain
Distancia de la estación: ENE 535km
Actualización: 16/12/2017 21:30
Despejado
Despejado
 Viento de NNO
Viento: NNO 28 km/h
Temperatura: 12°C
Rocío: -2°C
Humedad: 38%
Barómetro: 1023 hPa
Resumen: Despejado
Visibilidad: mayor de 10 km
2017/12/16 20:30 LEVC 162030Z 34015KT CAVOK 12/M02 Q1023 NOSIG